Time;durP1;ratioP1;P1;durP2;ratioP2;P2;SDS_P1;SDS_P2;PMS_P1;PMS_P2;Temp;Humidity;BMP_temperature;BMP_pressure;BME280_temperature;BME280_humidity;BME280_pressure;Samples;Min_cycle;Max_cycle;Signal;HPM_P1;HPM_P2
2023/03/31 00:04:51;;;;;;;13.80;8.30;;;;;;;12.33;62.55;98203.30;223679;182;147265;-72
2023/03/31 00:09:56;;;;;;;11.40;7.70;;;;;;;12.35;62.41;98201.58;223650;182;139250;-71
2023/03/31 00:15:21;;;;;;;12.40;7.80;;;;;;;12.36;62.33;98210.30;223678;183;137348;-72
2023/03/31 00:20:24;;;;;;;11.50;7.50;;;;;;;12.33;62.45;98214.52;223623;182;146914;-71
2023/03/31 00:25:28;;;;;;;14.50;8.50;;;;;;;12.31;62.42;98214.63;222939;182;138614;-76
2023/03/31 00:30:31;;;;;;;13.90;8.80;;;;;;;12.29;62.57;98213.36;223717;182;139591;-75
2023/03/31 00:35:38;;;;;;;11.50;8.40;;;;;;;12.26;62.46;98215.54;223748;179;259047;-75
2023/03/31 00:40:46;;;;;;;11.20;8.30;;;;;;;12.23;62.62;98215.87;223488;182;139604;-75
2023/03/31 00:45:49;;;;;;;17.10;8.60;;;;;;;12.17;62.67;98223.10;223623;182;138191;-74
2023/03/31 00:50:56;;;;;;;11.90;8.60;;;;;;;12.17;62.76;98214.21;223634;182;147053;-74
2023/03/31 00:56:07;;;;;;;11.30;8.30;;;;;;;12.18;62.79;98215.36;223599;182;139210;-74
2023/03/31 01:01:16;;;;;;;15.60;8.60;;;;;;;12.14;62.69;98212.50;223709;183;137750;-75
2023/03/31 01:06:20;;;;;;;11.60;8.70;;;;;;;12.05;62.82;98207.33;223595;182;147290;-76
2023/03/31 01:11:26;;;;;;;12.40;8.60;;;;;;;12.03;63.00;98200.77;221842;182;138629;-73
2023/03/31 01:16:32;;;;;;;14.20;9.10;;;;;;;12.02;62.97;98203.47;223706;182;137504;-74
2023/03/31 01:22:02;;;;;;;11.00;7.70;;;;;;;12.00;62.98;98203.48;223619;182;147253;-75
2023/03/31 01:27:49;;;;;;;11.30;8.00;;;;;;;11.98;62.92;98203.12;223462;182;139259;-74
2023/03/31 01:33:21;;;;;;;13.80;8.70;;;;;;;12.03;62.96;98208.02;223620;183;137297;-74
2023/03/31 01:39:00;;;;;;;14.10;8.70;;;;;;;12.07;62.74;98201.14;223665;182;147624;-74
2023/03/31 01:44:31;;;;;;;12.70;8.60;;;;;;;12.06;62.66;98196.03;223554;183;138393;-74
2023/03/31 01:50:01;;;;;;;11.60;8.10;;;;;;;12.03;62.61;98199.29;223695;182;137875;-74
2023/03/31 01:55:24;;;;;;;12.40;8.20;;;;;;;11.97;62.80;98202.14;223566;182;148644;-74
2023/03/31 02:00:37;;;;;;;11.60;7.90;;;;;;;11.93;62.73;98208.31;223585;183;138881;-75
2023/03/31 02:05:46;;;;;;;14.10;8.70;;;;;;;11.86;62.94;98207.98;223838;182;136864;-73
2023/03/31 02:10:52;;;;;;;12.30;8.80;;;;;;;11.80;63.02;98210.73;223684;182;147319;-73
2023/03/31 02:16:00;;;;;;;11.50;7.90;;;;;;;11.77;63.07;98209.60;223602;182;138176;-73
2023/03/31 02:21:07;;;;;;;10.90;7.30;;;;;;;11.76;63.03;98205.73;223717;182;138173;-72
2023/03/31 02:26:16;;;;;;;11.60;7.20;;;;;;;11.80;62.92;98212.19;223675;182;146814;-73
2023/03/31 02:31:45;;;;;;;11.30;7.70;;;;;;;11.83;62.86;98206.80;223682;182;138078;-71
2023/03/31 02:36:49;;;;;;;9.50;7.00;;;;;;;11.82;62.63;98210.39;223648;179;136983;-73
2023/03/31 02:41:53;;;;;;;12.60;6.90;;;;;;;11.84;62.54;98207.05;223684;183;147287;-74
2023/03/31 02:46:57;;;;;;;10.70;7.60;;;;;;;11.82;62.41;98211.67;223653;183;138050;-73
2023/03/31 02:52:30;;;;;;;8.10;6.70;;;;;;;11.79;62.43;98209.79;223545;183;136787;-74
2023/03/31 02:57:36;;;;;;;12.20;6.60;;;;;;;11.75;62.49;98212.05;223769;182;147331;-73
2023/03/31 03:02:43;;;;;;;7.00;5.50;;;;;;;11.69;62.57;98211.45;223667;182;151311;-73
2023/03/31 03:08:17;;;;;;;10.00;5.80;;;;;;;11.63;62.71;98207.67;223597;182;137403;-73
2023/03/31 03:13:30;;;;;;;7.50;5.90;;;;;;;11.60;62.64;98205.20;223658;182;147648;-72
2023/03/31 03:18:33;;;;;;;7.80;5.50;;;;;;;11.60;62.77;98201.72;223490;182;138918;-72
2023/03/31 03:23:37;;;;;;;8.70;4.90;;;;;;;11.63;62.64;98202.85;223767;183;137741;-72
2023/03/31 03:28:40;;;;;;;10.20;5.20;;;;;;;11.70;62.44;98211.71;223606;182;147984;-72
2023/03/31 03:33:44;;;;;;;9.70;4.90;;;;;;;11.74;62.18;98216.58;223588;182;138079;-72
2023/03/31 03:38:47;;;;;;;8.30;4.30;;;;;;;11.77;62.06;98209.39;223605;182;136758;-73
2023/03/31 03:43:50;;;;;;;8.90;4.80;;;;;;;11.77;61.90;98209.73;223645;182;147379;-72
2023/03/31 03:48:54;;;;;;;8.20;4.60;;;;;;;11.74;61.85;98211.61;223635;182;139057;-72
2023/03/31 03:53:58;;;;;;;5.40;4.30;;;;;;;11.71;61.96;98200.33;223743;182;138219;-73
2023/03/31 03:59:01;;;;;;;10.40;4.40;;;;;;;11.69;61.95;98194.99;223659;182;147618;-72
2023/03/31 04:04:04;;;;;;;8.20;4.10;;;;;;;11.66;61.89;98192.84;223673;183;138845;-73
2023/03/31 04:09:08;;;;;;;10.40;4.30;;;;;;;11.62;62.02;98190.73;223613;182;136747;-75
2023/03/31 04:14:11;;;;;;;5.50;3.70;;;;;;;11.55;62.08;98188.27;222016;183;147619;-77
2023/03/31 04:19:20;;;;;;;72.20;54.40;;;;;;;11.55;62.34;98181.84;223661;182;139020;-75
2023/03/31 04:24:31;;;;;;;42.40;29.00;;;;;;;11.53;62.14;98178.47;223659;182;137488;-75
2023/03/31 04:29:36;;;;;;;6.80;3.60;;;;;;;11.52;62.07;98173.41;223688;182;147586;-76
2023/03/31 04:34:39;;;;;;;7.20;3.60;;;;;;;11.53;62.05;98160.02;223605;182;138918;-76
2023/03/31 04:39:45;;;;;;;7.30;3.20;;;;;;;11.55;62.05;98164.48;223670;182;137502;-76
2023/03/31 04:44:48;;;;;;;6.30;3.60;;;;;;;11.62;61.98;98163.90;223612;182;147109;-76
2023/03/31 04:49:52;;;;;;;6.30;3.70;;;;;;;11.69;61.73;98159.41;223498;182;138756;-75
2023/03/31 04:54:55;;;;;;;8.60;3.70;;;;;;;11.71;61.53;98156.95;223569;183;136651;-76
2023/03/31 04:59:58;;;;;;;166.70;109.20;;;;;;;11.69;61.49;98160.29;223747;182;146831;-75
2023/03/31 05:05:03;;;;;;;8.10;5.20;;;;;;;11.71;61.50;98161.95;223483;183;138970;-76
2023/03/31 05:10:07;;;;;;;7.10;4.10;;;;;;;11.65;61.55;98159.90;223680;182;137610;-77
2023/03/31 05:15:11;;;;;;;6.90;3.70;;;;;;;11.66;61.54;98157.21;223680;182;159241;-77
2023/03/31 05:20:18;;;;;;;5.50;3.40;;;;;;;11.71;61.53;98147.89;223607;182;138423;-77
2023/03/31 05:25:22;;;;;;;9.20;3.30;;;;;;;11.74;61.36;98150.48;221712;183;137644;-70
2023/03/31 05:30:26;;;;;;;10.00;4.90;;;;;;;11.75;61.57;98150.73;223580;182;147416;-75
2023/03/31 05:35:30;;;;;;;9.90;3.90;;;;;;;11.76;61.30;98140.65;223737;182;138415;-75
2023/03/31 05:40:33;;;;;;;11.10;3.70;;;;;;;11.81;61.01;98135.52;223643;182;137100;-75
2023/03/31 05:45:37;;;;;;;6.30;3.90;;;;;;;11.82;60.94;98131.33;223683;182;147049;-75
2023/03/31 05:50:41;;;;;;;7.10;4.00;;;;;;;11.82;60.79;98127.27;223702;182;139702;-75
2023/03/31 05:55:45;;;;;;;8.60;4.10;;;;;;;11.84;60.78;98119.27;223681;182;137551;-75
2023/03/31 06:00:49;;;;;;;7.70;3.90;;;;;;;11.88;60.66;98113.46;222082;182;146990;-76
2023/03/31 06:05:52;;;;;;;9.90;3.90;;;;;;;11.87;60.64;98108.74;223699;182;267321;-76
2023/03/31 06:10:57;;;;;;;11.20;4.20;;;;;;;11.92;60.60;98106.06;223709;182;136889;-76
2023/03/31 06:16:00;;;;;;;8.50;4.10;;;;;;;11.90;60.68;98109.91;223653;182;147185;-76
2023/03/31 06:21:04;;;;;;;7.90;3.80;;;;;;;11.99;60.70;98112.39;223652;183;138098;-76
2023/03/31 06:26:14;;;;;;;8.60;4.40;;;;;;;12.06;60.30;98114.29;223661;181;137137;-76
2023/03/31 06:31:20;;;;;;;5.20;3.50;;;;;;;12.17;59.91;98109.31;223679;182;147889;-76
2023/03/31 06:36:24;;;;;;;6.60;3.60;;;;;;;12.20;59.67;98108.86;223604;182;140162;-76
2023/03/31 06:41:28;;;;;;;8.40;3.50;;;;;;;12.25;59.60;98105.26;223711;182;137464;-76
2023/03/31 06:46:32;;;;;;;8.50;3.10;;;;;;;12.31;59.28;98106.00;223638;182;147781;-76
2023/03/31 06:51:36;;;;;;;6.20;3.50;;;;;;;12.36;58.99;98103.63;223578;182;138499;-76
2023/03/31 06:56:39;;;;;;;6.10;3.00;;;;;;;12.43;58.70;98101.20;223589;183;136977;-76
2023/03/31 07:01:44;;;;;;;8.10;3.10;;;;;;;12.49;58.73;98100.15;223702;182;147733;-77
2023/03/31 07:06:48;;;;;;;10.10;3.70;;;;;;;12.60;58.43;98101.42;223655;182;138694;-77
2023/03/31 07:11:51;;;;;;;7.70;3.30;;;;;;;12.75;58.13;98100.95;223806;182;137364;-77
2023/03/31 07:16:59;;;;;;;7.40;3.60;;;;;;;12.87;57.53;98096.20;223303;182;147700;-75
2023/03/31 07:22:03;;;;;;;7.00;3.50;;;;;;;12.98;57.30;98087.73;223665;182;138610;-75
2023/03/31 07:27:06;;;;;;;8.00;3.50;;;;;;;13.11;57.27;98083.98;223630;182;138062;-75
2023/03/31 07:32:09;;;;;;;6.40;2.70;;;;;;;13.24;56.67;98085.67;223600;183;146996;-75
2023/03/31 07:37:13;;;;;;;8.10;2.90;;;;;;;13.33;56.14;98079.25;223664;182;138826;-75
2023/03/31 07:42:17;;;;;;;7.20;2.90;;;;;;;13.40;55.88;98069.00;223747;182;136988;-75
2023/03/31 07:47:23;;;;;;;11.00;3.20;;;;;;;13.50;55.79;98065.73;223799;182;146895;-75
2023/03/31 07:52:26;;;;;;;8.60;3.20;;;;;;;13.66;55.55;98055.95;223575;183;139030;-80
2023/03/31 07:57:30;;;;;;;8.20;3.20;;;;;;;13.80;55.18;98057.86;223711;183;136513;-76
2023/03/31 08:02:34;;;;;;;6.60;2.90;;;;;;;13.95;54.56;98061.98;223580;182;147613;-77
2023/03/31 08:07:42;;;;;;;7.00;3.50;;;;;;;14.02;54.09;98059.75;223637;183;139364;-76
2023/03/31 08:12:46;;;;;;;7.10;2.90;;;;;;;14.08;54.17;98046.19;223651;182;137118;-84
2023/03/31 08:18:02;;;;;;;6.80;2.90;;;;;;;14.23;54.14;98037.50;222784;183;147349;-70
2023/03/31 08:23:10;;;;;;;6.40;2.60;;;;;;;14.39;53.39;98032.23;223420;183;138348;-72
2023/03/31 08:28:14;;;;;;;9.50;2.60;;;;;;;14.53;52.71;98023.68;223462;183;137638;-75
2023/03/31 08:33:40;;;;;;;4.00;2.20;;;;;;;14.64;52.16;98018.68;223577;183;146825;-66
2023/03/31 08:38:48;;;;;;;5.50;2.40;;;;;;;14.70;51.66;98013.33;223453;184;140368;-67
2023/03/31 08:44:14;;;;;;;3.80;2.40;;;;;;;14.76;51.27;98016.09;223483;183;137094;-69
2023/03/31 08:49:20;;;;;;;6.50;2.70;;;;;;;14.80;51.00;98008.41;223617;183;147328;-70
2023/03/31 08:54:48;;;;;;;4.50;2.60;;;;;;;14.79;51.17;97997.11;223547;184;138978;-68
2023/03/31 08:59:57;;;;;;;5.20;2.50;;;;;;;14.89;51.13;97989.17;223537;184;137119;-68
2023/03/31 09:05:10;;;;;;;5.10;2.60;;;;;;;14.95;50.89;97980.38;223461;184;149121;-67
2023/03/31 09:10:29;;;;;;;6.50;3.20;;;;;;;14.96;50.68;97974.86;223384;183;139440;-70
2023/03/31 09:15:45;;;;;;;6.70;2.10;;;;;;;15.02;49.61;97970.20;223505;184;138300;-70
2023/03/31 09:20:52;;;;;;;5.30;2.40;;;;;;;14.98;49.59;97952.00;223475;184;148376;-67
2023/03/31 09:25:58;;;;;;;6.50;2.10;;;;;;;14.93;49.87;97952.48;223396;183;138391;-67
2023/03/31 09:31:16;;;;;;;7.00;1.90;;;;;;;14.93;49.58;97951.65;223497;183;137395;-69
2023/03/31 09:36:24;;;;;;;4.90;1.80;;;;;;;14.97;50.01;97941.98;223445;183;147765;-69
2023/03/31 09:43:41;;;;;;;4.80;2.10;;;;;;;15.09;49.86;97928.38;221880;193;666339;-70
2023/03/31 09:48:53;;;;;;;4.40;2.20;;;;;;;15.18;49.60;97911.13;223139;187;136097;-68
2023/03/31 09:54:09;;;;;;;5.00;1.90;;;;;;;15.35;49.13;97901.39;223214;187;143616;-68
2023/03/31 09:59:34;;;;;;;4.40;2.00;;;;;;;15.55;48.80;97887.58;223161;186;139069;-71
2023/03/31 10:04:45;;;;;;;15.20;10.30;;;;;;;15.77;48.28;97869.41;223603;184;136309;-69
2023/03/31 10:09:50;;;;;;;6.50;2.30;;;;;;;16.01;47.75;97867.70;223647;182;145399;-68
2023/03/31 10:15:10;;;;;;;5.70;2.00;;;;;;;16.20;47.45;97871.80;223710;182;140696;-70
2023/03/31 10:20:42;;;;;;;3.50;1.70;;;;;;;16.32;46.86;97859.67;223730;182;137584;-69
2023/03/31 10:29:32;;;;;;;5.90;1.80;;;;;;;16.91;46.06;97845.14;220472;193;666346;-70
2023/03/31 10:34:41;;;;;;;3.40;1.40;;;;;;;17.19;44.48;97846.13;223317;187;136685;-73
2023/03/31 10:39:46;;;;;;;4.70;1.60;;;;;;;17.29;43.99;97829.94;223739;183;145682;-71
2023/03/31 10:45:30;;;;;;;4.90;1.80;;;;;;;17.43;43.80;97830.27;223640;182;139375;-69
2023/03/31 10:50:42;;;;;;;4.60;1.90;;;;;;;17.39;42.69;97822.55;223736;181;136334;-70
2023/03/31 10:55:46;;;;;;;;;;;;;;;17.56;43.08;97812.98;223730;179;143362;-69
2023/03/31 11:01:22;;;;;;;2.40;1.50;;;;;;;17.64;43.08;97809.95;223612;181;140897;-67
2023/03/31 11:06:36;;;;;;;;;;;;;;;17.72;42.72;97808.49;223768;182;136732;-67
2023/03/31 11:11:52;;;;;;;4.70;1.60;;;;;;;17.89;42.01;97804.30;223800;182;143520;-68
2023/03/31 11:17:21;;;;;;;5.00;1.50;;;;;;;17.89;40.80;97792.83;223713;182;138297;-68
2023/03/31 11:22:51;;;;;;;3.20;1.50;;;;;;;17.64;40.58;97785.17;223621;181;136739;-67
2023/03/31 11:28:19;;;;;;;5.30;1.50;;;;;;;17.34;41.22;97782.27;223719;182;145284;-71
2023/03/31 11:33:40;;;;;;;5.60;1.70;;;;;;;17.11;42.02;97781.27;223619;181;138445;-73
2023/03/31 11:38:55;;;;;;;4.00;1.30;;;;;;;16.96;42.50;97770.13;223691;182;136591;-67
2023/03/31 11:44:11;;;;;;;6.00;1.70;;;;;;;16.68;42.12;97768.95;223717;181;146098;-68
2023/03/31 11:49:20;;;;;;;3.90;1.50;;;;;;;16.54;42.33;97769.20;223726;181;138327;-67
2023/03/31 11:54:30;;;;;;;7.80;1.60;;;;;;;16.51;42.82;97761.14;223725;181;136697;-67
2023/03/31 11:59:36;;;;;;;6.90;1.90;;;;;;;16.58;42.94;97752.34;223650;182;145558;-66
2023/03/31 12:04:42;;;;;;;;;;;;;;;16.56;43.48;97746.61;223798;182;138460;-68
2023/03/31 12:10:14;;;;;;;6.00;2.20;;;;;;;16.66;45.72;97742.76;223800;181;129446;-66
2023/03/31 12:15:26;;;;;;;4.00;1.70;;;;;;;16.82;46.52;97738.14;223802;181;146158;-69
2023/03/31 12:20:33;;;;;;;6.70;1.70;;;;;;;16.95;45.26;97735.66;223607;181;139312;-69
2023/03/31 12:25:52;;;;;;;5.30;1.80;;;;;;;16.93;44.04;97725.11;223666;182;137094;-67
2023/03/31 12:30:56;;;;;;;5.30;1.80;;;;;;;16.91;43.38;97722.48;223812;182;146217;-69
2023/03/31 12:36:03;;;;;;;3.70;1.90;;;;;;;16.89;43.64;97709.83;223869;181;138906;-67
2023/03/31 12:41:13;;;;;;;7.20;1.90;;;;;;;17.02;43.86;97691.92;223717;181;136775;-66
2023/03/31 12:46:39;;;;;;;4.70;1.90;;;;;;;17.55;43.51;97676.13;223763;181;145203;-66
2023/03/31 12:52:25;;;;;;;4.20;1.80;;;;;;;17.97;42.80;97668.83;223618;181;140250;-67
2023/03/31 12:57:29;;;;;;;4.80;1.80;;;;;;;17.94;41.91;97662.88;223723;181;137304;-70
2023/03/31 13:02:33;;;;;;;5.10;2.10;;;;;;;17.81;42.04;97648.45;223673;181;145590;-68
2023/03/31 13:07:40;;;;;;;8.90;2.10;;;;;;;17.67;42.20;97645.08;223676;181;138768;-68
2023/03/31 13:13:00;;;;;;;8.40;1.90;;;;;;;17.62;42.35;97635.85;223817;181;136551;-69
2023/03/31 13:18:05;;;;;;;5.60;1.90;;;;;;;17.89;41.74;97624.92;223720;181;145220;-68
2023/03/31 13:23:27;;;;;;;4.20;1.70;;;;;;;18.07;41.26;97615.41;223685;181;138391;-68
2023/03/31 13:28:44;;;;;;;7.20;1.80;;;;;;;18.00;41.10;97600.30;223771;182;136914;-65
2023/03/31 13:34:03;;;;;;;5.70;1.80;;;;;;;18.05;41.07;97590.16;223789;181;145535;-65
2023/03/31 13:39:50;;;;;;;6.70;1.50;;;;;;;18.35;40.07;97586.34;223771;182;138313;-63
2023/03/31 13:45:21;;;;;;;5.10;1.70;;;;;;;18.53;39.13;97561.20;223852;181;137622;-64
2023/03/31 13:50:41;;;;;;;6.20;1.80;;;;;;;18.46;39.08;97545.36;223790;181;145328;-67
2023/03/31 13:55:57;;;;;;;4.50;1.60;;;;;;;18.24;39.53;97545.20;223682;181;138438;-65
2023/03/31 14:01:33;;;;;;;7.70;1.90;;;;;;;18.03;39.70;97538.89;223692;181;137027;-66
2023/03/31 14:06:55;;;;;;;51.20;35.20;;;;;;;17.82;39.83;97538.88;223741;181;145232;-66
2023/03/31 14:12:00;;;;;;;4.90;2.00;;;;;;;17.67;40.00;97532.35;223710;181;138673;-66
2023/03/31 14:17:05;;;;;;;5.30;1.60;;;;;;;17.51;39.96;97539.31;223756;181;137054;-67
2023/03/31 14:22:41;;;;;;;7.90;1.90;;;;;;;17.38;40.51;97539.20;223732;182;145318;-65
2023/03/31 14:28:20;;;;;;;7.90;1.70;;;;;;;17.09;42.39;97542.92;223793;181;139231;-66
2023/03/31 14:33:47;;;;;;;3.30;1.60;;;;;;;16.79;44.15;97537.16;223791;181;137519;-65
2023/03/31 14:38:51;;;;;;;4.00;1.70;;;;;;;16.66;45.18;97527.02;223738;181;145290;-65
2023/03/31 15:45:30;;;;;;;6.70;3.90;;;;;;;16.09;41.79;97449.96;220861;193;665582;-66
2023/03/31 15:50:33;;;;;;;3.60;1.10;;;;;;;16.05;41.66;97447.95;223730;182;136086;-67
2023/03/31 15:55:40;;;;;;;3.60;1.10;;;;;;;16.02;41.76;97446.85;223684;182;143483;-66
2023/03/31 16:00:51;;;;;;;8.20;1.30;;;;;;;15.97;41.81;97437.53;223807;182;138339;-68
2023/03/31 16:06:05;;;;;;;4.00;1.50;;;;;;;15.93;41.95;97430.09;223741;182;136388;-67
2023/03/31 16:11:34;;;;;;;6.00;1.60;;;;;;;15.90;42.29;97418.79;223772;182;143880;-64
2023/03/31 16:16:44;;;;;;;4.00;1.30;;;;;;;15.95;42.72;97411.80;223668;183;138854;-66
2023/03/31 16:21:53;;;;;;;4.80;1.40;;;;;;;15.95;43.01;97405.27;223717;182;137563;-64
2023/03/31 16:27:01;;;;;;;4.50;1.40;;;;;;;15.89;43.32;97397.26;223777;183;143866;-69
2023/03/31 16:32:19;;;;;;;2.40;1.30;;;;;;;15.84;43.51;97391.70;223695;182;138872;-67
2023/03/31 16:37:23;;;;;;;4.50;1.30;;;;;;;15.81;43.55;97379.69;223733;182;137162;-66
2023/03/31 16:42:27;;;;;;;5.00;1.70;;;;;;;15.83;43.63;97371.95;223626;182;145230;-68
2023/03/31 16:47:31;;;;;;;3.50;1.80;;;;;;;15.83;43.79;97366.62;223640;180;138724;-68
2023/03/31 16:52:39;;;;;;;88.40;59.70;;;;;;;15.80;44.31;97353.38;223658;180;137531;-67
2023/03/31 16:57:44;;;;;;;9.90;4.00;;;;;;;15.79;44.09;97358.47;223663;181;146226;-67
2023/03/31 17:02:48;;;;;;;4.50;1.90;;;;;;;15.76;44.03;97363.98;223630;181;138328;-65
2023/03/31 17:07:52;;;;;;;4.00;1.90;;;;;;;15.76;44.02;97362.06;223593;182;136680;-67
2023/03/31 17:12:56;;;;;;;6.50;2.20;;;;;;;15.73;44.20;97363.81;223672;181;145810;-69
2023/03/31 17:18:00;;;;;;;5.90;3.20;;;;;;;15.71;44.33;97364.34;223589;182;138108;-66
2023/03/31 17:23:06;;;;;;;4.90;2.10;;;;;;;15.68;44.73;97360.42;223576;181;136947;-67
2023/03/31 17:28:12;;;;;;;11.90;2.80;;;;;;;15.66;44.77;97361.00;223544;183;146973;-66
2023/03/31 17:33:16;;;;;;;7.20;3.30;;;;;;;15.63;45.01;97354.13;223617;181;139646;-70
2023/03/31 17:38:21;;;;;;;5.60;3.10;;;;;;;15.59;45.21;97344.23;223536;181;136393;-73
2023/03/31 17:43:26;;;;;;;8.20;3.20;;;;;;;15.60;45.56;97336.46;223539;182;145133;-71
2023/03/31 17:48:30;;;;;;;6.00;3.20;;;;;;;15.56;45.77;97332.78;223601;182;138577;-68
2023/03/31 17:53:38;;;;;;;8.30;3.50;;;;;;;15.47;45.98;97326.61;223638;182;136592;-69
2023/03/31 17:58:42;;;;;;;12.30;3.90;;;;;;;15.45;46.20;97321.59;223551;182;145404;-70
2023/03/31 18:03:46;;;;;;;13.20;4.30;;;;;;;15.42;46.44;97315.66;223695;182;139995;-71
2023/03/31 18:08:52;;;;;;;;;;;;;;;15.35;46.97;97309.30;223485;182;136167;-68
2023/03/31 18:13:55;;;;;;;13.70;5.70;;;;;;;15.23;47.18;97303.69;223791;182;145243;-68
2023/03/31 18:18:59;;;;;;;15.00;6.40;;;;;;;15.08;47.67;97302.45;223605;181;138259;-70
2023/03/31 18:24:03;;;;;;;17.00;7.10;;;;;;;15.00;47.64;97294.94;223687;181;136841;-69
2023/03/31 18:29:06;;;;;;;14.30;6.90;;;;;;;14.98;47.83;97306.23;223603;181;147179;-71
2023/03/31 18:34:15;;;;;;;13.20;7.10;;;;;;;14.91;47.84;97311.61;223664;181;139732;-68
2023/03/31 18:42:48;;;;;;;18.70;7.30;;;;;;;14.83;48.10;97313.70;221515;194;675325;-69
2023/03/31 18:47:52;;;;;;;16.70;7.60;;;;;;;14.81;48.09;97305.35;223463;185;136622;-69
2023/03/31 18:52:55;;;;;;;17.10;7.60;;;;;;;14.79;48.14;97300.50;223633;184;143525;-69
2023/03/31 18:57:58;;;;;;;19.70;9.80;;;;;;;14.79;48.22;97298.23;223550;184;140097;-67
2023/03/31 19:03:02;;;;;;;14.30;7.60;;;;;;;14.79;48.24;97298.19;223671;184;136860;-69
2023/03/31 19:08:06;;;;;;;18.90;7.10;;;;;;;14.80;48.34;97289.22;223746;184;145298;-66
2023/03/31 19:13:14;;;;;;;14.80;7.20;;;;;;;14.81;48.68;97289.46;223597;184;138198;-70
2023/03/31 19:18:18;;;;;;;16.00;7.80;;;;;;;14.72;48.95;97286.86;223691;184;136489;-67
2023/03/31 19:23:21;;;;;;;20.30;7.50;;;;;;;14.65;49.06;97281.16;223668;184;143963;-67
2023/03/31 19:28:26;;;;;;;14.70;6.60;;;;;;;14.63;49.51;97277.08;223595;184;138321;-68
2023/03/31 19:33:33;;;;;;;81.80;54.00;;;;;;;14.60;49.86;97270.84;223845;182;137114;-66
2023/03/31 19:38:36;;;;;;;28.90;17.00;;;;;;;14.67;49.86;97263.51;223870;181;145600;-66
2023/03/31 19:43:40;;;;;;;14.10;6.80;;;;;;;14.73;49.24;97255.54;223798;182;138665;-67
2023/03/31 19:48:44;;;;;;;18.20;7.00;;;;;;;14.68;49.32;97260.32;223915;182;139127;-69
2023/03/31 19:53:47;;;;;;;14.00;7.50;;;;;;;14.56;49.60;97274.59;223811;182;145563;-68
2023/03/31 19:58:51;;;;;;;13.60;6.70;;;;;;;14.45;49.94;97262.08;223796;182;138727;-67
2023/03/31 20:03:55;;;;;;;14.70;6.50;;;;;;;14.50;49.82;97259.60;223835;182;136425;-65
2023/03/31 20:09:02;;;;;;;17.20;6.90;;;;;;;14.50;50.20;97258.80;223897;182;146549;-66
2023/03/31 20:14:06;;;;;;;10.60;6.40;;;;;;;14.47;50.37;97257.52;223839;182;138307;-67
2023/03/31 20:19:11;;;;;;;12.60;7.00;;;;;;;14.43;51.05;97251.02;223796;182;136643;-70
2023/03/31 20:24:17;;;;;;;12.40;6.20;;;;;;;14.34;51.26;97244.61;223756;182;145820;-72
2023/03/31 20:29:20;;;;;;;;;;;;;;;14.28;51.63;97241.38;222426;183;138819;-70
2023/03/31 20:34:26;;;;;;;131.80;85.40;;;;;;;14.23;54.23;97233.13;222532;182;131113;-74
2023/03/31 20:39:30;;;;;;;18.00;7.70;;;;;;;14.73;53.09;97232.89;223879;182;145373;-70
2023/03/31 20:44:33;;;;;;;12.40;7.00;;;;;;;14.54;51.88;97232.34;223865;182;138909;-70
2023/03/31 20:49:37;;;;;;;14.30;7.00;;;;;;;14.32;51.98;97232.77;223825;182;136214;-66
2023/03/31 20:54:43;;;;;;;17.50;7.00;;;;;;;14.11;52.92;97235.52;224001;182;145293;-69
2023/03/31 20:59:47;;;;;;;17.70;7.40;;;;;;;13.97;53.59;97239.98;223760;182;138345;-69
2023/03/31 21:04:59;;;;;;;19.80;10.10;;;;;;;13.85;54.86;97247.27;223861;182;136678;-69
2023/03/31 21:10:04;;;;;;;16.20;9.00;;;;;;;13.75;55.52;97244.81;223866;182;145088;-68
2023/03/31 21:15:08;;;;;;;51.20;29.70;;;;;;;13.66;55.44;97256.36;223835;182;138674;-67
2023/03/31 21:20:12;;;;;;;16.10;8.40;;;;;;;13.60;55.33;97276.25;223885;183;137136;-67
2023/03/31 21:25:16;;;;;;;16.90;8.90;;;;;;;13.67;54.66;97274.08;223837;183;145113;-65
2023/03/31 21:30:20;;;;;;;16.50;9.70;;;;;;;13.73;54.59;97273.81;223913;183;139108;-66
2023/03/31 21:35:44;;;;;;;18.90;9.90;;;;;;;13.74;54.96;97278.02;223845;183;137691;-64
2023/03/31 21:40:50;;;;;;;18.70;9.80;;;;;;;13.63;55.46;97270.08;223764;182;145474;-68
2023/03/31 21:45:57;;;;;;;17.50;9.50;;;;;;;13.61;55.80;97268.52;223696;182;138123;-69
2023/03/31 21:51:01;;;;;;;15.80;9.70;;;;;;;13.58;55.75;97273.80;223810;183;137095;-74
2023/03/31 21:56:05;;;;;;;16.90;8.30;;;;;;;13.59;55.73;97266.02;223872;182;145715;-74
2023/03/31 22:01:12;;;;;;;16.90;7.70;;;;;;;13.63;55.21;97273.09;223820;182;138176;-66
2023/03/31 22:06:15;;;;;;;13.90;6.90;;;;;;;13.67;54.79;97264.14;223866;182;137060;-69
2023/03/31 22:11:21;;;;;;;10.10;6.00;;;;;;;13.70;54.37;97267.24;223859;182;145675;-71
2023/03/31 22:16:25;;;;;;;8.60;4.50;;;;;;;13.73;53.70;97274.61;223865;182;138783;-65
2023/03/31 22:21:29;;;;;;;7.30;3.70;;;;;;;13.69;53.00;97276.92;223932;182;137194;-71
2023/03/31 22:26:33;;;;;;;4.90;3.00;;;;;;;13.67;52.69;97278.63;223844;181;145193;-69
2023/03/31 22:31:37;;;;;;;4.30;2.50;;;;;;;13.56;52.66;97276.55;223827;182;138272;-68
2023/03/31 22:36:41;;;;;;;5.80;2.20;;;;;;;13.48;52.53;97276.83;223915;182;136629;-71
2023/03/31 22:41:48;;;;;;;3.40;2.00;;;;;;;13.32;52.25;97278.05;223856;183;146686;-69
2023/03/31 22:46:52;;;;;;;5.50;1.70;;;;;;;13.26;52.23;97283.19;223742;183;138921;-68
2023/03/31 22:51:59;;;;;;;4.30;1.70;;;;;;;13.21;52.27;97270.95;223845;183;136829;-67
2023/03/31 22:57:03;;;;;;;3.80;1.80;;;;;;;13.13;52.25;97277.67;223802;182;146046;-67
2023/03/31 23:02:09;;;;;;;3.40;1.60;;;;;;;13.02;52.39;97280.68;223078;182;138767;-67
2023/03/31 23:07:14;;;;;;;3.70;1.50;;;;;;;13.00;52.41;97277.33;223869;182;137261;-67
2023/03/31 23:12:24;;;;;;;3.70;1.30;;;;;;;12.96;52.30;97282.16;223856;182;145711;-66
2023/03/31 23:17:27;;;;;;;4.60;1.70;;;;;;;12.93;52.47;97284.42;223760;182;138162;-66
2023/03/31 23:22:32;;;;;;;3.20;1.40;;;;;;;12.95;52.43;97272.54;223838;182;136894;-67
2023/03/31 23:27:36;;;;;;;3.80;1.60;;;;;;;12.90;52.48;97280.29;223857;182;146203;-68
2023/03/31 23:32:39;;;;;;;3.50;1.50;;;;;;;12.80;52.73;97283.75;223869;182;138430;-70
2023/03/31 23:37:43;;;;;;;3.30;1.60;;;;;;;12.75;52.92;97279.67;223869;182;136689;-68
2023/03/31 23:42:46;;;;;;;3.90;1.50;;;;;;;12.67;53.03;97272.42;223952;182;145275;-68
2023/03/31 23:47:49;;;;;;;3.00;1.50;;;;;;;12.61;53.28;97272.20;223862;182;138449;-70
2023/03/31 23:52:54;;;;;;;5.00;1.60;;;;;;;12.56;53.45;97271.73;223869;182;137298;-70
2023/03/31 23:57:57;;;;;;;3.60;1.60;;;;;;;12.52;53.57;97270.04;223948;182;145768;-71
